sensor_id;sensor_type;location;lat;lon;timestamp;pressure;altitude;pressure_sealevel;temperature;humidity
30819;BME280;17546;42.674;23.284;2022-10-13T00:00:36;95476.50;;;18.26;43.25
30819;BME280;17546;42.674;23.284;2022-10-13T00:03:02;95475.44;;;18.29;43.12
30819;BME280;17546;42.674;23.284;2022-10-13T00:05:31;95478.72;;;18.33;42.71
30819;BME280;17546;42.674;23.284;2022-10-13T00:07:57;95470.13;;;18.45;42.41
30819;BME280;17546;42.674;23.284;2022-10-13T00:10:23;95473.19;;;18.28;42.81
30819;BME280;17546;42.674;23.284;2022-10-13T00:12:49;95480.91;;;18.41;42.81
30819;BME280;17546;42.674;23.284;2022-10-13T00:15:15;95478.47;;;18.31;42.67
30819;BME280;17546;42.674;23.284;2022-10-13T00:17:41;95475.44;;;18.29;42.97
30819;BME280;17546;42.674;23.284;2022-10-13T00:20:07;95466.56;;;18.25;42.77
30819;BME280;17546;42.674;23.284;2022-10-13T00:22:33;95463.19;;;18.32;42.58
30819;BME280;17546;42.674;23.284;2022-10-13T00:24:59;95465.75;;;18.30;42.76
30819;BME280;17546;42.674;23.284;2022-10-13T00:27:24;95461.81;;;18.20;42.94
30819;BME280;17546;42.674;23.284;2022-10-13T00:29:50;95467.41;;;18.20;43.12
30819;BME280;17546;42.674;23.284;2022-10-13T00:32:15;95462.41;;;18.13;43.09
30819;BME280;17546;42.674;23.284;2022-10-13T00:34:41;95458.47;;;18.22;42.56
30819;BME280;17546;42.674;23.284;2022-10-13T00:37:06;95453.56;;;18.09;43.10
30819;BME280;17546;42.674;23.284;2022-10-13T00:39:32;95461.22;;;18.08;42.84
30819;BME280;17546;42.674;23.284;2022-10-13T00:41:58;95463.00;;;18.25;42.80
30819;BME280;17546;42.674;23.284;2022-10-13T00:44:59;95448.22;;;17.86;43.25
30819;BME280;17546;42.674;23.284;2022-10-13T00:47:30;95446.50;;;18.21;42.55
30819;BME280;17546;42.674;23.284;2022-10-13T00:49:57;95444.28;;;18.14;42.92
30819;BME280;17546;42.674;23.284;2022-10-13T00:52:28;95443.59;;;18.08;43.00
30819;BME280;17546;42.674;23.284;2022-10-13T00:54:55;95448.94;;;17.92;43.23
30819;BME280;17546;42.674;23.284;2022-10-13T00:57:21;95445.28;;;17.98;43.22
30819;BME280;17546;42.674;23.284;2022-10-13T00:59:47;95445.59;;;18.13;42.78
30819;BME280;17546;42.674;23.284;2022-10-13T01:02:13;95446.81;;;18.17;42.78
30819;BME280;17546;42.674;23.284;2022-10-13T01:04:43;95454.94;;;18.21;42.82
30819;BME280;17546;42.674;23.284;2022-10-13T01:07:09;95449.22;;;18.08;43.01
30819;BME280;17546;42.674;23.284;2022-10-13T01:09:35;95447.78;;;18.01;43.10
30819;BME280;17546;42.674;23.284;2022-10-13T01:15:25;95433.00;;;18.01;43.47
30819;BME280;17546;42.674;23.284;2022-10-13T01:18:12;95433.63;;;17.93;43.16
30819;BME280;17546;42.674;23.284;2022-10-13T01:20:49;95443.75;;;17.96;43.38
30819;BME280;17546;42.674;23.284;2022-10-13T01:29:09;95439.38;;;17.82;43.65
30819;BME280;17546;42.674;23.284;2022-10-13T01:34:01;95441.53;;;17.70;43.89
30819;BME280;17546;42.674;23.284;2022-10-13T01:41:49;95445.44;;;17.86;44.13
30819;BME280;17546;42.674;23.284;2022-10-13T01:44:30;95442.84;;;17.64;44.35
30819;BME280;17546;42.674;23.284;2022-10-13T01:46:57;95450.09;;;17.78;43.93
30819;BME280;17546;42.674;23.284;2022-10-13T01:49:28;95441.16;;;17.80;44.03
30819;BME280;17546;42.674;23.284;2022-10-13T01:51:59;95440.56;;;17.87;43.88
30819;BME280;17546;42.674;23.284;2022-10-13T01:54:25;95438.63;;;17.76;44.06
30819;BME280;17546;42.674;23.284;2022-10-13T01:56:52;95433.38;;;17.91;43.84
30819;BME280;17546;42.674;23.284;2022-10-13T01:59:18;95437.53;;;17.85;44.16
30819;BME280;17546;42.674;23.284;2022-10-13T02:02:11;95434.69;;;17.90;43.92
30819;BME280;17546;42.674;23.284;2022-10-13T02:04:44;95431.03;;;17.95;43.48
30819;BME280;17546;42.674;23.284;2022-10-13T02:07:53;95432.25;;;18.00;43.61
30819;BME280;17546;42.674;23.284;2022-10-13T02:10:22;95431.13;;;17.65;44.35
30819;BME280;17546;42.674;23.284;2022-10-13T02:12:55;95429.94;;;17.80;43.92
30819;BME280;17546;42.674;23.284;2022-10-13T02:15:28;95429.00;;;17.96;43.54
30819;BME280;17546;42.674;23.284;2022-10-13T02:17:55;95424.75;;;17.89;43.62
30819;BME280;17546;42.674;23.284;2022-10-13T02:20:21;95429.38;;;17.87;43.63
30819;BME280;17546;42.674;23.284;2022-10-13T02:22:53;95424.97;;;17.91;43.47
30819;BME280;17546;42.674;23.284;2022-10-13T02:25:20;95426.03;;;17.88;43.75
30819;BME280;17546;42.674;23.284;2022-10-13T02:27:46;95416.22;;;17.76;43.93
30819;BME280;17546;42.674;23.284;2022-10-13T02:30:22;95419.38;;;17.91;43.35
30819;BME280;17546;42.674;23.284;2022-10-13T02:32:48;95410.84;;;17.78;43.85
30819;BME280;17546;42.674;23.284;2022-10-13T02:35:13;95409.22;;;17.88;43.66
30819;BME280;17546;42.674;23.284;2022-10-13T02:37:39;95414.63;;;17.62;44.31
30819;BME280;17546;42.674;23.284;2022-10-13T02:40:05;95409.78;;;17.81;43.53
30819;BME280;17546;42.674;23.284;2022-10-13T02:42:30;95401.69;;;17.77;43.58
30819;BME280;17546;42.674;23.284;2022-10-13T02:44:56;95400.13;;;17.82;43.44
30819;BME280;17546;42.674;23.284;2022-10-13T02:47:21;95407.69;;;17.87;43.67
30819;BME280;17546;42.674;23.284;2022-10-13T02:49:46;95399.53;;;17.89;43.60
30819;BME280;17546;42.674;23.284;2022-10-13T02:52:12;95404.78;;;17.74;43.80
30819;BME280;17546;42.674;23.284;2022-10-13T02:54:37;95397.69;;;17.73;43.83
30819;BME280;17546;42.674;23.284;2022-10-13T02:57:03;95408.56;;;17.76;43.70
30819;BME280;17546;42.674;23.284;2022-10-13T02:59:28;95399.03;;;17.66;44.08
30819;BME280;17546;42.674;23.284;2022-10-13T03:01:54;95396.59;;;17.76;43.68
30819;BME280;17546;42.674;23.284;2022-10-13T03:04:21;95400.78;;;17.69;44.03
30819;BME280;17546;42.674;23.284;2022-10-13T03:06:46;95401.47;;;17.75;43.94
30819;BME280;17546;42.674;23.284;2022-10-13T03:09:11;95401.75;;;17.72;44.13
30819;BME280;17546;42.674;23.284;2022-10-13T03:11:37;95396.31;;;17.80;43.68
30819;BME280;17546;42.674;23.284;2022-10-13T03:14:03;95401.22;;;17.73;43.93
30819;BME280;17546;42.674;23.284;2022-10-13T03:16:28;95407.25;;;17.83;43.73
30819;BME280;17546;42.674;23.284;2022-10-13T03:18:54;95409.13;;;17.75;44.05
30819;BME280;17546;42.674;23.284;2022-10-13T03:21:19;95410.28;;;17.85;43.79
30819;BME280;17546;42.674;23.284;2022-10-13T03:23:44;95412.25;;;17.90;43.72
30819;BME280;17546;42.674;23.284;2022-10-13T03:26:10;95409.69;;;17.92;43.66
30819;BME280;17546;42.674;23.284;2022-10-13T03:28:35;95411.25;;;17.88;43.81
30819;BME280;17546;42.674;23.284;2022-10-13T03:31:06;95420.44;;;17.88;43.74
30819;BME280;17546;42.674;23.284;2022-10-13T03:33:33;95415.59;;;17.89;43.49
30819;BME280;17546;42.674;23.284;2022-10-13T03:36:03;95419.13;;;17.89;43.53
30819;BME280;17546;42.674;23.284;2022-10-13T03:38:30;95416.44;;;17.78;43.76
30819;BME280;17546;42.674;23.284;2022-10-13T03:40:56;95416.59;;;17.67;43.92
30819;BME280;17546;42.674;23.284;2022-10-13T03:43:22;95409.13;;;17.50;44.33
30819;BME280;17546;42.674;23.284;2022-10-13T03:45:57;95411.13;;;17.55;44.57
30819;BME280;17546;42.674;23.284;2022-10-13T03:48:23;95416.13;;;17.63;44.33
30819;BME280;17546;42.674;23.284;2022-10-13T03:50:49;95412.50;;;17.68;44.47
30819;BME280;17546;42.674;23.284;2022-10-13T03:53:15;95413.63;;;17.59;44.79
30819;BME280;17546;42.674;23.284;2022-10-13T03:55:40;95403.47;;;17.56;44.95
30819;BME280;17546;42.674;23.284;2022-10-13T03:58:06;95404.19;;;17.62;44.89
30819;BME280;17546;42.674;23.284;2022-10-13T04:00:34;95396.66;;;17.51;45.13
30819;BME280;17546;42.674;23.284;2022-10-13T04:02:59;95406.56;;;17.52;45.43
30819;BME280;17546;42.674;23.284;2022-10-13T04:05:25;95402.03;;;17.49;45.68
30819;BME280;17546;42.674;23.284;2022-10-13T04:07:51;95403.66;;;17.39;45.90
30819;BME280;17546;42.674;23.284;2022-10-13T04:10:16;95407.34;;;17.53;45.65
30819;BME280;17546;42.674;23.284;2022-10-13T04:12:41;95404.59;;;17.47;45.75
30819;BME280;17546;42.674;23.284;2022-10-13T04:15:07;95402.72;;;17.55;45.93
30819;BME280;17546;42.674;23.284;2022-10-13T04:17:33;95405.53;;;17.06;46.88
30819;BME280;17546;42.674;23.284;2022-10-13T04:19:58;95397.97;;;17.26;46.44
30819;BME280;17546;42.674;23.284;2022-10-13T04:22:24;95405.09;;;17.27;46.62
30819;BME280;17546;42.674;23.284;2022-10-13T04:24:49;95394.00;;;17.16;46.81
30819;BME280;17546;42.674;23.284;2022-10-13T04:27:14;95392.25;;;17.12;47.04
30819;BME280;17546;42.674;23.284;2022-10-13T04:29:41;95397.31;;;17.14;47.24
30819;BME280;17546;42.674;23.284;2022-10-13T04:32:06;95389.41;;;17.18;47.09
30819;BME280;17546;42.674;23.284;2022-10-13T04:34:32;95391.84;;;17.27;46.92
30819;BME280;17546;42.674;23.284;2022-10-13T04:36:57;95394.59;;;17.33;46.98
30819;BME280;17546;42.674;23.284;2022-10-13T04:39:23;95392.66;;;17.22;47.28
30819;BME280;17546;42.674;23.284;2022-10-13T04:41:48;95396.03;;;17.15;47.32
30819;BME280;17546;42.674;23.284;2022-10-13T04:44:14;95395.16;;;17.26;47.20
30819;BME280;17546;42.674;23.284;2022-10-13T04:46:40;95388.09;;;17.19;47.13
30819;BME280;17546;42.674;23.284;2022-10-13T04:49:05;95378.84;;;16.81;48.19
30819;BME280;17546;42.674;23.284;2022-10-13T04:51:31;95392.19;;;16.93;47.94
30819;BME280;17546;42.674;23.284;2022-10-13T04:53:58;95395.41;;;17.03;47.82
30819;BME280;17546;42.674;23.284;2022-10-13T04:56:25;95398.53;;;16.94;47.93
30819;BME280;17546;42.674;23.284;2022-10-13T04:58:51;95403.59;;;16.65;48.56
30819;BME280;17546;42.674;23.284;2022-10-13T05:01:20;95415.13;;;16.56;48.84
30819;BME280;17546;42.674;23.284;2022-10-13T05:03:46;95410.31;;;16.87;48.24
30819;BME280;17546;42.674;23.284;2022-10-13T05:06:17;95409.25;;;16.90;48.37
30819;BME280;17546;42.674;23.284;2022-10-13T05:08:42;95408.22;;;16.93;48.43
30819;BME280;17546;42.674;23.284;2022-10-13T05:11:08;95407.94;;;16.97;48.33
30819;BME280;17546;42.674;23.284;2022-10-13T05:13:34;95407.66;;;17.00;48.35
30819;BME280;17546;42.674;23.284;2022-10-13T05:16:12;95395.97;;;16.96;48.44
30819;BME280;17546;42.674;23.284;2022-10-13T05:18:38;95409.03;;;17.12;48.34
30819;BME280;17546;42.674;23.284;2022-10-13T05:21:18;95419.88;;;17.22;48.10
30819;BME280;17546;42.674;23.284;2022-10-13T05:23:44;95435.28;;;17.34;47.69
30819;BME280;17546;42.674;23.284;2022-10-13T05:26:14;95431.63;;;17.45;47.40
30819;BME280;17546;42.674;23.284;2022-10-13T05:28:44;95430.41;;;17.40;47.65
30819;BME280;17546;42.674;23.284;2022-10-13T05:31:14;95426.91;;;17.34;47.81
30819;BME280;17546;42.674;23.284;2022-10-13T05:33:44;95426.41;;;17.54;47.33
30819;BME280;17546;42.674;23.284;2022-10-13T05:36:12;95432.19;;;17.62;47.21
30819;BME280;17546;42.674;23.284;2022-10-13T05:38:41;95442.19;;;17.58;47.30
30819;BME280;17546;42.674;23.284;2022-10-13T05:41:15;95441.25;;;17.49;47.33
30819;BME280;17546;42.674;23.284;2022-10-13T05:43:41;95452.78;;;17.65;47.09
30819;BME280;17546;42.674;23.284;2022-10-13T05:46:07;95456.41;;;17.60;47.41
30819;BME280;17546;42.674;23.284;2022-10-13T05:48:34;95456.84;;;17.64;47.44
30819;BME280;17546;42.674;23.284;2022-10-13T05:51:01;95452.72;;;17.70;47.35
30819;BME280;17546;42.674;23.284;2022-10-13T05:53:33;95462.34;;;17.75;47.01
30819;BME280;17546;42.674;23.284;2022-10-13T05:56:04;95453.47;;;17.71;47.01
30819;BME280;17546;42.674;23.284;2022-10-13T05:58:33;95467.63;;;17.60;47.30
30819;BME280;17546;42.674;23.284;2022-10-13T06:01:01;95474.84;;;17.74;47.25
30819;BME280;17546;42.674;23.284;2022-10-13T06:03:26;95466.44;;;17.74;46.98
30819;BME280;17546;42.674;23.284;2022-10-13T06:05:52;95467.75;;;17.48;47.46
30819;BME280;17546;42.674;23.284;2022-10-13T06:08:18;95448.06;;;17.54;47.17
30819;BME280;17546;42.674;23.284;2022-10-13T06:10:43;95461.72;;;17.63;47.11
30819;BME280;17546;42.674;23.284;2022-10-13T06:13:09;95454.19;;;17.77;46.89
30819;BME280;17546;42.674;23.284;2022-10-13T06:15:35;95449.38;;;17.72;47.33
30819;BME280;17546;42.674;23.284;2022-10-13T06:18:00;95463.03;;;17.81;47.25
30819;BME280;17546;42.674;23.284;2022-10-13T06:20:26;95457.69;;;17.83;47.43
30819;BME280;17546;42.674;23.284;2022-10-13T06:22:55;95458.34;;;17.70;47.35
30819;BME280;17546;42.674;23.284;2022-10-13T06:25:20;95459.81;;;17.96;47.07
30819;BME280;17546;42.674;23.284;2022-10-13T06:27:46;95459.47;;;17.81;47.42
30819;BME280;17546;42.674;23.284;2022-10-13T06:30:11;95460.66;;;18.10;46.64
30819;BME280;17546;42.674;23.284;2022-10-13T06:32:36;95459.00;;;18.20;46.96
30819;BME280;17546;42.674;23.284;2022-10-13T06:35:02;95462.94;;;18.30;46.75
30819;BME280;17546;42.674;23.284;2022-10-13T06:37:28;95462.34;;;18.37;46.40
30819;BME280;17546;42.674;23.284;2022-10-13T06:39:53;95453.53;;;18.47;46.23
30819;BME280;17546;42.674;23.284;2022-10-13T06:42:19;95455.34;;;18.44;46.40
30819;BME280;17546;42.674;23.284;2022-10-13T06:44:44;95458.91;;;18.45;46.60
30819;BME280;17546;42.674;23.284;2022-10-13T06:47:09;95456.72;;;18.56;46.27
30819;BME280;17546;42.674;23.284;2022-10-13T06:49:35;95452.47;;;18.50;46.36
30819;BME280;17546;42.674;23.284;2022-10-13T06:52:00;95443.03;;;18.66;46.10
30819;BME280;17546;42.674;23.284;2022-10-13T06:54:26;95445.97;;;18.74;45.64
30819;BME280;17546;42.674;23.284;2022-10-13T06:56:51;95441.72;;;18.67;46.25
30819;BME280;17546;42.674;23.284;2022-10-13T06:59:17;95455.91;;;18.75;46.05
30819;BME280;17546;42.674;23.284;2022-10-13T07:01:42;95447.53;;;18.56;46.04
30819;BME280;17546;42.674;23.284;2022-10-13T07:04:08;95448.19;;;18.62;46.02
30819;BME280;17546;42.674;23.284;2022-10-13T07:06:34;95438.19;;;18.67;46.06
30819;BME280;17546;42.674;23.284;2022-10-13T07:09:05;95442.34;;;18.79;45.98
30819;BME280;17546;42.674;23.284;2022-10-13T07:11:31;95448.44;;;18.45;46.62
30819;BME280;17546;42.674;23.284;2022-10-13T07:13:56;95446.94;;;18.25;46.75
30819;BME280;17546;42.674;23.284;2022-10-13T07:16:21;95440.00;;;18.64;46.26
30819;BME280;17546;42.674;23.284;2022-10-13T07:18:47;95434.63;;;18.66;46.17
30819;BME280;17546;42.674;23.284;2022-10-13T07:21:13;95440.75;;;18.84;45.72
30819;BME280;17546;42.674;23.284;2022-10-13T07:23:38;95442.69;;;18.89;45.58
30819;BME280;17546;42.674;23.284;2022-10-13T07:26:12;95446.28;;;18.70;46.06
30819;BME280;17546;42.674;23.284;2022-10-13T07:28:42;95448.03;;;18.73;46.16
30819;BME280;17546;42.674;23.284;2022-10-13T07:31:10;95444.69;;;18.75;45.81
30819;BME280;17546;42.674;23.284;2022-10-13T07:33:38;95448.09;;;18.87;45.55
30819;BME280;17546;42.674;23.284;2022-10-13T07:36:04;95442.13;;;18.58;46.30
30819;BME280;17546;42.674;23.284;2022-10-13T07:38:29;95442.28;;;18.66;46.27
30819;BME280;17546;42.674;23.284;2022-10-13T07:40:55;95444.94;;;18.58;46.46
30819;BME280;17546;42.674;23.284;2022-10-13T07:43:20;95440.22;;;18.66;46.22
30819;BME280;17546;42.674;23.284;2022-10-13T07:45:46;95447.91;;;18.47;46.52
30819;BME280;17546;42.674;23.284;2022-10-13T07:48:11;95445.88;;;18.47;46.18
30819;BME280;17546;42.674;23.284;2022-10-13T07:50:37;95446.28;;;18.70;46.07
30819;BME280;17546;42.674;23.284;2022-10-13T07:53:02;95448.72;;;18.79;46.28
30819;BME280;17546;42.674;23.284;2022-10-13T07:55:27;95443.94;;;18.74;46.39
30819;BME280;17546;42.674;23.284;2022-10-13T07:57:53;95450.69;;;18.85;46.08
30819;BME280;17546;42.674;23.284;2022-10-13T08:00:18;95438.00;;;18.27;47.22
30819;BME280;17546;42.674;23.284;2022-10-13T08:02:44;95437.72;;;18.82;46.21
30819;BME280;17546;42.674;23.284;2022-10-13T08:05:09;95433.13;;;19.11;45.81
30819;BME280;17546;42.674;23.284;2022-10-13T08:07:34;95436.06;;;19.05;45.49
30819;BME280;17546;42.674;23.284;2022-10-13T08:10:02;95444.66;;;18.43;47.37
30819;BME280;17546;42.674;23.284;2022-10-13T08:12:28;95442.00;;;19.15;45.83
30819;BME280;17546;42.674;23.284;2022-10-13T08:14:53;95437.03;;;19.08;45.81
30819;BME280;17546;42.674;23.284;2022-10-13T08:17:19;95441.81;;;19.39;44.99
30819;BME280;17546;42.674;23.284;2022-10-13T08:19:44;95437.06;;;19.48;44.85
30819;BME280;17546;42.674;23.284;2022-10-13T08:22:10;95427.03;;;19.52;44.66
30819;BME280;17546;42.674;23.284;2022-10-13T08:24:36;95436.09;;;19.58;44.55
30819;BME280;17546;42.674;23.284;2022-10-13T08:27:02;95425.09;;;19.47;44.99
30819;BME280;17546;42.674;23.284;2022-10-13T08:29:27;95432.56;;;19.71;44.42
30819;BME280;17546;42.674;23.284;2022-10-13T08:31:53;95425.50;;;20.05;44.09
30819;BME280;17546;42.674;23.284;2022-10-13T08:34:19;95423.06;;;20.22;44.16
30819;BME280;17546;42.674;23.284;2022-10-13T08:36:45;95416.78;;;20.29;43.82
30819;BME280;17546;42.674;23.284;2022-10-13T08:39:11;95420.72;;;20.47;43.46
30819;BME280;17546;42.674;23.284;2022-10-13T08:41:40;95426.19;;;20.66;42.95
30819;BME280;17546;42.674;23.284;2022-10-13T08:49:44;95416.09;;;20.71;42.68
30819;BME280;17546;42.674;23.284;2022-10-13T08:52:22;95417.28;;;20.75;42.95
30819;BME280;17546;42.674;23.284;2022-10-13T08:54:48;95402.84;;;20.58;43.27
30819;BME280;17546;42.674;23.284;2022-10-13T08:57:15;95395.91;;;20.80;43.18
30819;BME280;17546;42.674;23.284;2022-10-13T08:59:40;95403.28;;;21.12;43.29
30819;BME280;17546;42.674;23.284;2022-10-13T09:02:15;95398.91;;;21.53;42.13
30819;BME280;17546;42.674;23.284;2022-10-13T09:04:47;95402.56;;;21.69;41.88
30819;BME280;17546;42.674;23.284;2022-10-13T09:07:19;95393.88;;;21.09;41.79
30819;BME280;17546;42.674;23.284;2022-10-13T09:09:49;95387.34;;;21.14;41.88
30819;BME280;17546;42.674;23.284;2022-10-13T09:12:17;95392.81;;;21.70;41.58
30819;BME280;17546;42.674;23.284;2022-10-13T09:15:16;95391.44;;;21.99;41.23
30819;BME280;17546;42.674;23.284;2022-10-13T09:17:42;95392.09;;;22.21;41.99
30819;BME280;17546;42.674;23.284;2022-10-13T09:22:42;95370.47;;;21.72;41.12
30819;BME280;17546;42.674;23.284;2022-10-13T09:27:57;95371.25;;;22.39;41.12
30819;BME280;17546;42.674;23.284;2022-10-13T09:30:31;95372.06;;;22.78;39.87
30819;BME280;17546;42.674;23.284;2022-10-13T09:36:09;95361.91;;;22.98;38.78
30819;BME280;17546;42.674;23.284;2022-10-13T09:38:37;95355.53;;;23.13;37.97
30819;BME280;17546;42.674;23.284;2022-10-13T09:41:11;95360.00;;;23.47;39.31
30819;BME280;17546;42.674;23.284;2022-10-13T09:46:27;95358.47;;;24.09;39.82
30819;BME280;17546;42.674;23.284;2022-10-13T09:48:56;95362.63;;;24.08;37.28
30819;BME280;17546;42.674;23.284;2022-10-13T09:51:43;95351.41;;;24.26;36.55
30819;BME280;17546;42.674;23.284;2022-10-13T09:59:49;95350.09;;;24.27;36.35
30819;BME280;17546;42.674;23.284;2022-10-13T10:02:22;95340.19;;;24.76;35.73
30819;BME280;17546;42.674;23.284;2022-10-13T10:04:51;95344.94;;;24.91;36.08
30819;BME280;17546;42.674;23.284;2022-10-13T10:07:22;95352.34;;;25.11;35.81
30819;BME280;17546;42.674;23.284;2022-10-13T10:10:14;95334.41;;;25.34;36.42
30819;BME280;17546;42.674;23.284;2022-10-13T10:12:43;95329.06;;;25.55;34.76
30819;BME280;17546;42.674;23.284;2022-10-13T10:15:23;95329.13;;;25.65;34.58
30819;BME280;17546;42.674;23.284;2022-10-13T10:18:16;95323.28;;;25.81;34.51
30819;BME280;17546;42.674;23.284;2022-10-13T10:20:55;95318.13;;;25.34;34.39
30819;BME280;17546;42.674;23.284;2022-10-13T10:26:00;95318.00;;;26.12;35.07
30819;BME280;17546;42.674;23.284;2022-10-13T10:28:41;95318.91;;;26.14;34.17
30819;BME280;17546;42.674;23.284;2022-10-13T10:37:15;95303.63;;;25.48;33.79
30819;BME280;17546;42.674;23.284;2022-10-13T10:44:53;95298.25;;;25.87;33.22
30819;BME280;17546;42.674;23.284;2022-10-13T10:47:26;95287.78;;;26.07;33.62
30819;BME280;17546;42.674;23.284;2022-10-13T10:50:01;95281.66;;;26.10;33.58
30819;BME280;17546;42.674;23.284;2022-10-13T10:55:22;95273.69;;;25.82;34.07
30819;BME280;17546;42.674;23.284;2022-10-13T10:58:13;95259.25;;;25.87;33.73
30819;BME280;17546;42.674;23.284;2022-10-13T11:00:52;95280.41;;;25.24;33.92
30819;BME280;17546;42.674;23.284;2022-10-13T11:08:44;95263.00;;;25.63;34.54
30819;BME280;17546;42.674;23.284;2022-10-13T11:14:01;95243.00;;;25.88;33.61
30819;BME280;17546;42.674;23.284;2022-10-13T11:27:24;95230.53;;;24.86;33.81
30819;BME280;17546;42.674;23.284;2022-10-13T11:29:54;95221.13;;;25.53;33.87
30819;BME280;17546;42.674;23.284;2022-10-13T11:42:42;95201.41;;;26.00;32.83
30819;BME280;17546;42.674;23.284;2022-10-13T11:50:57;95199.28;;;25.91;32.70
30819;BME280;17546;42.674;23.284;2022-10-13T11:56:21;95198.03;;;26.11;32.81
30819;BME280;17546;42.674;23.284;2022-10-13T11:58:47;95188.81;;;26.21;32.72
30819;BME280;17546;42.674;23.284;2022-10-13T12:01:14;95190.50;;;26.33;32.83
30819;BME280;17546;42.674;23.284;2022-10-13T12:03:42;95188.56;;;26.36;32.18
30819;BME280;17546;42.674;23.284;2022-10-13T12:06:29;95186.81;;;26.50;32.62
30819;BME280;17546;42.674;23.284;2022-10-13T12:09:05;95184.44;;;26.56;32.73
30819;BME280;17546;42.674;23.284;2022-10-13T12:11:38;95188.66;;;26.55;31.95
30819;BME280;17546;42.674;23.284;2022-10-13T12:14:06;95180.28;;;26.57;31.88
30819;BME280;17546;42.674;23.284;2022-10-13T12:16:32;95184.75;;;26.61;32.39
30819;BME280;17546;42.674;23.284;2022-10-13T12:19:16;95178.50;;;26.72;32.49
30819;BME280;17546;42.674;23.284;2022-10-13T12:21:50;95179.41;;;26.84;32.52
30819;BME280;17546;42.674;23.284;2022-10-13T12:24:15;95180.91;;;26.85;32.20
30819;BME280;17546;42.674;23.284;2022-10-13T12:26:41;95183.13;;;26.67;31.91
30819;BME280;17546;42.674;23.284;2022-10-13T12:29:12;95182.84;;;26.83;32.20
30819;BME280;17546;42.674;23.284;2022-10-13T12:31:46;95189.72;;;26.89;33.25
30819;BME280;17546;42.674;23.284;2022-10-13T12:34:28;95177.03;;;26.90;32.26
30819;BME280;17546;42.674;23.284;2022-10-13T12:39:21;95169.72;;;26.97;32.05
30819;BME280;17546;42.674;23.284;2022-10-13T12:41:49;95168.22;;;26.86;32.29
30819;BME280;17546;42.674;23.284;2022-10-13T12:44:24;95163.72;;;27.03;31.91
30819;BME280;17546;42.674;23.284;2022-10-13T12:46:54;95160.56;;;26.98;32.28
30819;BME280;17546;42.674;23.284;2022-10-13T12:49:25;95152.50;;;27.05;33.10
30819;BME280;17546;42.674;23.284;2022-10-13T12:54:25;95144.75;;;26.39;31.59
30819;BME280;17546;42.674;23.284;2022-10-13T12:56:55;95152.63;;;26.68;31.58
30819;BME280;17546;42.674;23.284;2022-10-13T12:59:22;95151.72;;;26.65;31.56
30819;BME280;17546;42.674;23.284;2022-10-13T13:04:43;95142.59;;;26.76;31.76
30819;BME280;17546;42.674;23.284;2022-10-13T13:10:22;95146.09;;;26.28;30.11
30819;BME280;17546;42.674;23.284;2022-10-13T13:12:48;95139.47;;;26.16;29.81
30819;BME280;17546;42.674;23.284;2022-10-13T13:15:32;95126.81;;;26.36;31.16
30819;BME280;17546;42.674;23.284;2022-10-13T13:20:54;95139.69;;;26.37;31.07
30819;BME280;17546;42.674;23.284;2022-10-13T13:23:20;95140.59;;;26.40;31.37
30819;BME280;17546;42.674;23.284;2022-10-13T13:25:46;95129.06;;;26.38;31.77
30819;BME280;17546;42.674;23.284;2022-10-13T13:28:13;95128.66;;;26.42;31.82
30819;BME280;17546;42.674;23.284;2022-10-13T13:30:40;95128.19;;;26.45;32.59
30819;BME280;17546;42.674;23.284;2022-10-13T13:33:14;95131.50;;;26.51;32.84
30819;BME280;17546;42.674;23.284;2022-10-13T13:35:40;95128.94;;;26.46;32.82
30819;BME280;17546;42.674;23.284;2022-10-13T13:38:05;95128.94;;;26.46;32.70
30819;BME280;17546;42.674;23.284;2022-10-13T13:40:31;95134.53;;;26.07;31.80
30819;BME280;17546;42.674;23.284;2022-10-13T13:42:56;95131.91;;;26.28;32.38
30819;BME280;17546;42.674;23.284;2022-10-13T13:45:22;95129.97;;;26.31;31.93
30819;BME280;17546;42.674;23.284;2022-10-13T13:47:50;95127.13;;;26.31;32.32
30819;BME280;17546;42.674;23.284;2022-10-13T13:50:20;95114.41;;;26.32;32.64
30819;BME280;17546;42.674;23.284;2022-10-13T13:52:46;95112.78;;;26.29;32.51
30819;BME280;17546;42.674;23.284;2022-10-13T13:55:12;95125.16;;;26.24;33.25
30819;BME280;17546;42.674;23.284;2022-10-13T13:57:38;95123.97;;;26.27;33.21
30819;BME280;17546;42.674;23.284;2022-10-13T14:00:04;95115.31;;;26.25;33.13
30819;BME280;17546;42.674;23.284;2022-10-13T14:02:30;95125.00;;;26.22;32.84
30819;BME280;17546;42.674;23.284;2022-10-13T14:04:55;95123.03;;;26.14;33.49
30819;BME280;17546;42.674;23.284;2022-10-13T14:07:20;95120.34;;;26.16;32.88
30819;BME280;17546;42.674;23.284;2022-10-13T14:09:46;95121.88;;;26.17;33.05
30819;BME280;17546;42.674;23.284;2022-10-13T14:12:12;95114.81;;;26.09;33.15
30819;BME280;17546;42.674;23.284;2022-10-13T14:14:37;95117.81;;;26.11;32.53
30819;BME280;17546;42.674;23.284;2022-10-13T14:17:04;95106.00;;;26.14;33.47
30819;BME280;17546;42.674;23.284;2022-10-13T14:19:31;95111.53;;;26.12;34.33
30819;BME280;17546;42.674;23.284;2022-10-13T14:21:57;95102.56;;;26.06;34.01
30819;BME280;17546;42.674;23.284;2022-10-13T14:24:23;95110.75;;;26.02;33.76
30819;BME280;17546;42.674;23.284;2022-10-13T14:26:48;95110.03;;;26.02;33.81
30819;BME280;17546;42.674;23.284;2022-10-13T14:29:14;95103.41;;;25.99;33.76
30819;BME280;17546;42.674;23.284;2022-10-13T14:31:40;95109.25;;;26.01;33.39
30819;BME280;17546;42.674;23.284;2022-10-13T14:34:06;95099.50;;;25.94;33.79
30819;BME280;17546;42.674;23.284;2022-10-13T14:36:31;95111.19;;;25.98;33.89
30819;BME280;17546;42.674;23.284;2022-10-13T14:38:57;95099.97;;;25.91;34.22
30819;BME280;17546;42.674;23.284;2022-10-13T14:41:22;95105.66;;;25.91;34.56
30819;BME280;17546;42.674;23.284;2022-10-13T14:43:54;95106.22;;;25.89;34.29